Manzanola, Colorado
Current Conditions -  °F | °C
As of 2:53 AM on Friday 31 Oct 2014 (Local Time) from KLHX Reporting Station
Clear Clear  
Wind Chill:   Ceiling: Unl
Heat Index:   Visibility: 10mi
Dew Point: -4°   Wind: 7mph
Humidity: 62%   Direction: 80°E
Pressure: 30.42"   Gusts: NA
Location:  38.11°N, 103.87°W
Report Text: KLHX 310853Z AUTO 08006KT 10SM CLR 03/M04 A3042 RMK AO2 SLP280 T00281039 50005
Loading
Personal Weather Stations






























Interactive Weather Map
Tropical Storm Tracking
New forecast layout! Learn more

10-Day Weather Forecast

Advertisements
Track Severe Weather on mobile